Time;durP1;ratioP1;P1;durP2;ratioP2;P2;SDS_P1;SDS_P2;PMS_P1;PMS_P2;Temp;Humidity;BMP_temperature;BMP_pressure;BME280_temperature;BME280_humidity;BME280_pressure;Samples;Min_cycle;Max_cycle;Signal;HPM_P1;HPM_P2
2023/05/16 00:00:35;;;;;;;57.25;38.30;;;9.60;99.90;;;;;;5000435;28;20137;-79
2023/05/16 00:03:02;;;;;;;62.58;39.80;;;9.50;99.90;;;;;;5002147;28;20045;-78
2023/05/16 00:05:29;;;;;;;64.50;40.25;;;9.60;99.90;;;;;;5001025;28;20080;-77
2023/05/16 00:07:55;;;;;;;59.75;38.38;;;9.60;99.90;;;;;;5001092;28;20051;-79
2023/05/16 00:10:22;;;;;;;56.83;37.13;;;9.70;99.90;;;;;;5003904;28;20077;-77
2023/05/16 00:12:50;;;;;;;56.65;37.05;;;9.60;99.90;;;;;;4999710;28;20045;-78
2023/05/16 00:15:19;;;;;;;63.20;40.05;;;9.60;99.90;;;;;;4984521;28;20100;-79
2023/05/16 00:17:46;;;;;;;62.50;37.47;;;9.60;99.90;;;;;;5005204;28;20099;-77
2023/05/16 00:20:15;;;;;;;49.75;34.83;;;9.50;99.90;;;;;;4986719;28;20045;-80
2023/05/16 00:22:42;;;;;;;53.35;37.50;;;9.50;99.90;;;;;;5011210;28;20054;-78
2023/05/16 00:25:09;;;;;;;57.00;37.00;;;9.50;99.90;;;;;;5003245;28;20570;-79
2023/05/16 00:27:36;;;;;;;60.10;36.38;;;9.50;99.90;;;;;;4995414;28;20061;-78
2023/05/16 00:30:03;;;;;;;58.83;36.17;;;9.50;99.90;;;;;;4982589;28;20050;-78
2023/05/16 00:32:30;;;;;;;55.90;35.65;;;9.40;99.90;;;;;;5016609;28;20076;-78
2023/05/16 00:34:57;;;;;;;57.30;36.05;;;9.30;99.90;;;;;;4996754;28;20038;-78
2023/05/16 00:37:24;;;;;;;54.13;35.45;;;9.30;99.90;;;;;;4994572;28;20033;-79
2023/05/16 00:39:52;;;;;;;58.45;35.67;;;9.20;99.90;;;;;;4993503;28;20042;-79
2023/05/16 00:42:20;;;;;;;53.47;36.72;;;9.20;99.90;;;;;;5000990;28;20056;-78
2023/05/16 00:44:47;;;;;;;54.95;35.65;;;9.20;99.90;;;;;;4993710;28;20042;-78
2023/05/16 00:47:14;;;;;;;59.13;34.53;;;9.10;99.90;;;;;;4996188;28;20038;-78
2023/05/16 00:49:41;;;;;;;52.92;35.65;;;9.20;99.90;;;;;;4995815;28;20723;-77
2023/05/16 00:52:08;;;;;;;58.17;37.50;;;9.20;99.90;;;;;;5002327;28;20061;-78
2023/05/16 00:54:35;;;;;;;54.47;37.08;;;9.20;99.90;;;;;;4992526;28;20148;-78
2023/05/16 00:57:03;;;;;;;61.45;36.75;;;9.30;99.90;;;;;;4999600;28;20038;-78
2023/05/16 00:59:30;;;;;;;57.05;34.28;;;9.30;99.90;;;;;;5013942;28;20140;-78
2023/05/16 01:01:57;;;;;;;60.83;38.85;;;9.20;99.90;;;;;;5017129;28;20072;-78
2023/05/16 01:04:25;;;;;;;55.42;37.00;;;9.20;99.90;;;;;;5009032;28;20047;-79
2023/05/16 01:06:55;;;;;;;56.60;37.10;;;9.10;99.90;;;;;;5010831;28;20037;-78
2023/05/16 01:09:22;;;;;;;62.88;38.28;;;9.10;99.90;;;;;;5003156;28;20070;-77
2023/05/16 01:11:55;;;;;;;56.90;37.15;;;9.20;99.90;;;;;;4999331;28;20042;-78
2023/05/16 01:14:44;;;;;;;58.60;37.13;;;9.10;99.90;;;;;;5002823;28;20049;-78
2023/05/16 01:17:20;;;;;;;53.70;35.22;;;9.10;99.90;;;;;;4983464;28;20056;-78
2023/05/16 01:20:19;;;;;;;51.95;32.22;;;9.00;99.90;;;;;;5001177;28;20057;-79
2023/05/16 01:22:52;;;;;;;49.40;31.70;;;8.90;99.90;;;;;;4981660;28;20053;-78
2023/05/16 01:25:44;;;;;;;46.58;31.38;;;8.90;99.90;;;;;;5001025;28;20089;-78
2023/05/16 01:28:16;;;;;;;49.20;31.00;;;8.90;99.90;;;;;;5003713;28;20095;-78
2023/05/16 01:30:43;;;;;;;43.30;29.80;;;9.00;99.90;;;;;;5005307;28;20049;-80
2023/05/16 01:33:10;;;;;;;42.58;29.17;;;9.00;99.90;;;;;;5005268;28;20103;-77
2023/05/16 01:35:54;;;;;;;41.72;28.88;;;9.10;99.90;;;;;;4988495;28;20049;-79
2023/05/16 01:38:30;;;;;;;39.53;28.75;;;9.00;99.90;;;;;;5027396;28;20099;-79
2023/05/16 01:41:17;;;;;;;41.47;29.80;;;9.00;99.90;;;;;;5016139;28;20506;-78
2023/05/16 01:43:50;;;;;;;42.85;29.30;;;9.00;99.90;;;;;;5002090;28;20049;-78
2023/05/16 01:46:25;;;;;;;36.30;28.92;;;9.00;99.90;;;;;;5004001;28;20048;-78
2023/05/16 01:49:16;;;;;;;36.67;26.52;;;9.00;99.90;;;;;;5044585;28;20045;-77
2023/05/16 01:52:00;;;;;;;36.03;27.20;;;9.10;99.90;;;;;;4964735;28;20047;-72
2023/05/16 01:54:30;;;;;;;44.03;29.13;;;9.10;99.90;;;;;;4947894;28;20542;-72
2023/05/16 01:56:59;;;;;;;41.85;29.00;;;9.10;99.90;;;;;;4969428;28;20042;-72
2023/05/16 01:59:27;;;;;;;39.60;29.02;;;9.00;99.90;;;;;;4962955;28;20054;-72
2023/05/16 02:01:56;;;;;;;38.55;29.27;;;9.00;99.90;;;;;;4979451;28;20133;-72
2023/05/16 02:04:23;;;;;;;48.45;30.20;;;9.00;99.90;;;;;;4987890;28;20050;-72
2023/05/16 02:06:50;;;;;;;41.90;29.80;;;9.00;99.90;;;;;;4988231;28;20038;-72
2023/05/16 02:09:17;;;;;;;45.58;31.55;;;9.00;99.90;;;;;;4981207;28;20043;-72
2023/05/16 02:11:45;;;;;;;51.15;32.67;;;9.00;99.90;;;;;;4985267;28;20045;-72
2023/05/16 02:14:12;;;;;;;44.00;30.02;;;8.90;99.90;;;;;;4975679;28;20365;-72
2023/05/16 02:16:39;;;;;;;50.22;32.30;;;8.90;99.90;;;;;;4988256;28;20181;-72
2023/05/16 02:19:06;;;;;;;49.70;33.63;;;8.90;99.90;;;;;;4990793;28;20107;-72
2023/05/16 02:21:32;;;;;;;48.95;31.45;;;8.90;99.90;;;;;;4986575;28;20043;-72
2023/05/16 02:23:59;;;;;;;41.45;30.25;;;8.90;99.90;;;;;;4976149;28;20066;-72
2023/05/16 02:26:26;;;;;;;43.63;29.80;;;8.90;99.90;;;;;;4987889;28;20057;-72
2023/05/16 02:28:53;;;;;;;38.60;28.08;;;8.90;99.90;;;;;;4992764;28;20026;-72
2023/05/16 02:31:30;;;;;;;41.55;29.02;;;8.90;99.90;;;;;;4992769;28;20153;-72
2023/05/16 02:33:58;;;;;;;37.45;26.98;;;8.90;99.90;;;;;;4993129;28;20401;-72
2023/05/16 02:36:26;;;;;;;36.38;26.30;;;8.90;99.90;;;;;;4970111;28;20356;-71
2023/05/16 02:38:53;;;;;;;34.03;26.00;;;8.90;99.90;;;;;;4982959;28;20044;-72
2023/05/16 02:41:21;;;;;;;38.35;29.05;;;8.90;99.90;;;;;;4979907;28;20043;-72
2023/05/16 02:43:48;;;;;;;38.13;27.92;;;9.00;99.90;;;;;;4980562;28;20038;-72
2023/05/16 02:46:30;;;;;;;39.00;28.00;;;9.00;99.90;;;;;;4989446;28;20229;-72
2023/05/16 02:48:57;;;;;;;42.70;29.63;;;9.10;99.90;;;;;;4986852;28;20050;-72
2023/05/16 02:51:26;;;;;;;43.60;28.23;;;9.10;99.90;;;;;;4976052;28;20047;-72
2023/05/16 02:53:55;;;;;;;38.55;28.85;;;9.10;99.90;;;;;;4984780;28;20056;-72
2023/05/16 02:56:22;;;;;;;38.97;28.17;;;9.10;99.90;;;;;;4991762;28;20053;-72
2023/05/16 02:58:50;;;;;;;38.30;27.65;;;9.10;99.90;;;;;;4991327;28;20189;-72
2023/05/16 03:01:17;;;;;;;39.97;28.08;;;9.10;99.90;;;;;;4985112;28;20274;-72
2023/05/16 03:03:44;;;;;;;35.08;27.35;;;9.10;99.90;;;;;;4991161;28;20066;-72
2023/05/16 03:06:11;;;;;;;39.60;28.23;;;9.00;99.90;;;;;;4981899;28;20176;-72
2023/05/16 03:08:38;;;;;;;43.97;28.60;;;9.00;99.90;;;;;;4994056;28;20038;-72
2023/05/16 03:11:04;;;;;;;42.05;30.30;;;9.00;99.90;;;;;;4989379;28;20030;-72
2023/05/16 03:13:31;;;;;;;38.35;27.63;;;9.00;99.90;;;;;;4980730;28;20104;-72
2023/05/16 03:16:00;;;;;;;31.98;26.45;;;8.90;99.90;;;;;;4978511;28;20137;-72
2023/05/16 03:18:27;;;;;;;34.20;24.88;;;8.90;99.90;;;;;;4980189;28;20066;-71
2023/05/16 03:20:53;;;;;;;34.22;24.10;;;8.80;99.90;;;;;;4994199;28;20049;-71
2023/05/16 03:23:23;;;;;;;25.92;20.27;;;8.90;99.90;;;;;;4984556;28;20048;-71
2023/05/16 03:25:49;;;;;;;18.55;16.65;;;8.80;99.90;;;;;;4989679;28;20039;-72
2023/05/16 03:28:20;;;;;;;17.60;15.93;;;8.60;99.90;;;;;;4984778;28;20420;-71
2023/05/16 03:30:46;;;;;;;19.17;16.23;;;8.50;99.90;;;;;;4987316;28;20049;-71
2023/05/16 03:33:13;;;;;;;17.40;15.75;;;8.40;99.90;;;;;;4988968;28;20609;-71
2023/05/16 03:35:42;;;;;;;16.25;14.70;;;8.50;99.90;;;;;;4983140;28;20038;-71
2023/05/16 03:38:09;;;;;;;18.70;16.15;;;8.50;99.90;;;;;;4989532;28;20052;-73
2023/05/16 03:40:36;;;;;;;19.05;17.20;;;8.40;99.90;;;;;;4982841;28;20038;-71
2023/05/16 03:43:02;;;;;;;18.20;16.42;;;8.50;99.90;;;;;;4982913;28;20038;-71
2023/05/16 03:45:30;;;;;;;22.05;17.00;;;8.40;99.90;;;;;;4988232;28;20046;-71
2023/05/16 03:47:57;;;;;;;22.27;17.20;;;8.30;99.90;;;;;;4992167;28;20164;-71
2023/05/16 03:50:24;;;;;;;23.95;17.33;;;8.20;99.90;;;;;;4990575;28;20096;-70
2023/05/16 03:52:54;;;;;;;20.42;16.65;;;8.20;99.90;;;;;;4979860;28;20476;-71
2023/05/16 03:55:21;;;;;;;17.45;15.38;;;8.10;99.90;;;;;;4986804;28;20047;-73
2023/05/16 03:57:48;;;;;;;19.48;16.55;;;8.10;99.90;;;;;;4983387;28;20038;-72
2023/05/16 04:00:16;;;;;;;23.15;15.57;;;8.00;99.90;;;;;;4989617;28;20041;-71
2023/05/16 04:02:43;;;;;;;22.95;17.38;;;8.00;99.90;;;;;;4991991;28;20041;-71
2023/05/16 04:05:12;;;;;;;22.52;16.42;;;8.00;99.90;;;;;;4988895;28;20042;-72
2023/05/16 04:07:39;;;;;;;18.67;15.93;;;7.90;99.90;;;;;;4985017;28;20305;-71
2023/05/16 04:10:08;;;;;;;25.55;17.17;;;8.00;99.90;;;;;;4978152;28;20121;-71
2023/05/16 04:12:35;;;;;;;24.63;16.65;;;8.00;99.90;;;;;;4990737;28;20041;-70
2023/05/16 04:15:03;;;;;;;22.92;16.98;;;8.00;99.90;;;;;;4990569;28;20598;-70
2023/05/16 04:17:30;;;;;;;25.48;17.38;;;8.00;99.90;;;;;;4990761;28;20042;-71
2023/05/16 04:19:57;;;;;;;23.90;16.83;;;7.90;99.90;;;;;;4985920;28;20050;-71
2023/05/16 04:22:24;;;;;;;29.00;16.88;;;7.90;99.90;;;;;;4974769;28;20034;-71
2023/05/16 04:24:50;;;;;;;29.02;16.52;;;7.80;99.90;;;;;;4986987;28;20047;-70
2023/05/16 04:27:17;;;;;;;20.40;18.25;;;7.90;99.90;;;;;;4986069;28;20034;-71
2023/05/16 04:29:44;;;;;;;24.10;17.17;;;7.90;99.90;;;;;;4988835;28;20041;-71
2023/05/16 04:32:11;;;;;;;23.60;19.40;;;7.80;99.90;;;;;;4983785;28;20049;-73
2023/05/16 04:34:37;;;;;;;20.98;17.38;;;7.90;99.90;;;;;;4987348;28;20042;-73
2023/05/16 04:37:07;;;;;;;18.88;16.52;;;7.80;99.90;;;;;;4992878;28;20073;-73
2023/05/16 04:39:34;;;;;;;23.83;17.45;;;7.70;99.90;;;;;;4987505;28;20054;-74
2023/05/16 04:42:02;;;;;;;21.45;15.68;;;7.80;99.90;;;;;;4981975;28;20505;-73
2023/05/16 04:44:29;;;;;;;25.98;17.05;;;7.80;99.90;;;;;;4984700;28;20043;-74
2023/05/16 04:46:56;;;;;;;24.45;16.30;;;7.80;99.90;;;;;;4991343;28;20046;-74
2023/05/16 04:49:23;;;;;;;22.58;15.70;;;7.80;99.90;;;;;;4988809;28;20050;-73
2023/05/16 04:51:50;;;;;;;21.70;17.05;;;7.80;99.90;;;;;;4991055;28;20045;-73
2023/05/16 04:54:16;;;;;;;26.58;15.57;;;7.80;99.90;;;;;;4990523;28;20046;-73
2023/05/16 04:56:43;;;;;;;21.98;14.95;;;7.80;99.90;;;;;;4982879;28;20069;-73
2023/05/16 04:59:10;;;;;;;24.20;15.90;;;7.70;99.90;;;;;;4987267;28;20052;-73
2023/05/16 05:01:37;;;;;;;28.63;16.73;;;7.70;99.90;;;;;;4989332;28;20045;-73
2023/05/16 05:04:03;;;;;;;25.75;16.08;;;7.80;99.90;;;;;;4990822;28;20061;-73
2023/05/16 05:06:30;;;;;;;20.73;16.23;;;7.80;99.90;;;;;;4983767;28;20041;-73
2023/05/16 05:08:57;;;;;;;23.30;15.25;;;7.80;99.90;;;;;;4973542;28;20543;-74
2023/05/16 05:11:26;;;;;;;21.90;15.68;;;7.80;99.90;;;;;;4983598;28;20408;-74
2023/05/16 05:13:52;;;;;;;22.25;14.05;;;7.80;99.90;;;;;;4980252;28;20038;-74
2023/05/16 05:16:19;;;;;;;28.92;14.65;;;7.70;99.90;;;;;;4984296;28;20449;-74
2023/05/16 05:18:45;;;;;;;28.02;14.82;;;7.70;99.90;;;;;;4970215;28;20048;-73
2023/05/16 05:21:13;;;;;;;22.90;14.73;;;7.70;99.90;;;;;;4980205;28;20072;-73
2023/05/16 05:23:39;;;;;;;25.63;16.25;;;7.70;99.90;;;;;;4988699;28;20052;-73
2023/05/16 05:26:06;;;;;;;30.13;15.07;;;7.80;99.90;;;;;;4986439;28;20501;-73
2023/05/16 05:28:33;;;;;;;35.13;16.45;;;7.80;99.90;;;;;;4991605;28;20053;-73
2023/05/16 05:31:00;;;;;;;27.33;15.98;;;7.80;99.90;;;;;;4989207;28;20117;-74
2023/05/16 05:33:29;;;;;;;23.35;14.07;;;7.80;99.90;;;;;;4989640;28;20050;-71
2023/05/16 05:35:56;;;;;;;24.17;13.00;;;7.80;99.90;;;;;;4991839;28;20665;-74
2023/05/16 05:38:23;;;;;;;30.85;14.20;;;7.80;99.90;;;;;;4977914;28;21102;-74
2023/05/16 05:40:50;;;;;;;24.73;13.55;;;7.70;99.90;;;;;;4992437;28;20052;-74
2023/05/16 05:43:16;;;;;;;26.95;14.20;;;7.70;99.90;;;;;;4989062;28;20046;-74
2023/05/16 05:45:43;;;;;;;39.22;14.95;;;7.60;99.90;;;;;;4992010;28;20101;-74
2023/05/16 05:48:11;;;;;;;27.60;14.82;;;7.50;99.90;;;;;;4989519;28;20053;-74
2023/05/16 05:50:38;;;;;;;26.27;14.10;;;7.50;99.90;;;;;;4984957;28;20128;-74
2023/05/16 05:53:04;;;;;;;29.00;14.07;;;7.50;99.90;;;;;;4976349;28;20048;-74
2023/05/16 05:55:31;;;;;;;24.73;12.70;;;7.50;99.90;;;;;;4990169;28;20058;-74
2023/05/16 05:57:58;;;;;;;18.77;13.70;;;7.50;99.90;;;;;;4988550;28;20701;-74
2023/05/16 06:00:25;;;;;;;26.35;14.18;;;7.60;99.90;;;;;;4984248;28;20412;-74
2023/05/16 06:02:51;;;;;;;22.17;14.07;;;7.50;99.90;;;;;;4975189;28;20045;-74
2023/05/16 06:05:19;;;;;;;16.50;13.57;;;7.50;99.90;;;;;;4985814;28;20081;-74
2023/05/16 06:07:45;;;;;;;27.00;14.27;;;7.50;99.90;;;;;;4988596;28;20052;-74
2023/05/16 06:10:12;;;;;;;21.63;14.35;;;7.50;99.90;;;;;;4991437;28;20565;-74
2023/05/16 06:12:39;;;;;;;40.20;15.20;;;7.60;99.90;;;;;;4986691;28;20046;-74
2023/05/16 06:15:06;;;;;;;22.48;14.57;;;7.60;99.90;;;;;;4986166;28;20050;-74
2023/05/16 06:17:33;;;;;;;25.15;14.63;;;7.60;99.90;;;;;;4987720;28;20306;-74
2023/05/16 06:20:00;;;;;;;41.50;16.52;;;7.70;99.90;;;;;;4989345;28;20034;-72
2023/05/16 06:22:27;;;;;;;22.88;14.73;;;7.70;99.90;;;;;;4988205;28;20038;-72
2023/05/16 06:24:53;;;;;;;24.38;14.57;;;7.70;99.90;;;;;;4986967;28;20035;-72
2023/05/16 06:27:20;;;;;;;25.02;17.42;;;7.80;99.90;;;;;;4984563;28;20073;-72
2023/05/16 06:29:47;;;;;;;29.17;19.30;;;7.70;99.90;;;;;;4988510;28;20104;-74
2023/05/16 06:32:13;;;;;;;27.20;19.48;;;7.70;99.90;;;;;;4978466;28;20037;-74
2023/05/16 06:34:40;;;;;;;23.75;17.02;;;7.70;99.90;;;;;;4991177;28;20329;-73
2023/05/16 06:37:07;;;;;;;24.83;17.17;;;7.80;99.90;;;;;;4987744;28;20046;-72
2023/05/16 06:39:33;;;;;;;32.13;18.58;;;7.80;99.90;;;;;;4994664;28;20048;-72
2023/05/16 06:42:00;;;;;;;27.27;17.85;;;7.80;99.90;;;;;;4986404;28;20038;-72
2023/05/16 06:44:30;;;;;;;24.25;17.55;;;7.80;99.90;;;;;;4979345;28;20057;-72
2023/05/16 06:46:57;;;;;;;33.17;17.52;;;7.90;99.90;;;;;;4983895;28;20039;-72
2023/05/16 06:49:24;;;;;;;28.42;18.35;;;8.00;99.90;;;;;;4995630;28;20041;-72
2023/05/16 06:51:51;;;;;;;26.83;18.95;;;8.00;99.90;;;;;;4986158;28;20049;-73
2023/05/16 06:54:18;;;;;;;26.15;19.58;;;8.00;99.90;;;;;;4988906;28;20046;-74
2023/05/16 06:56:45;;;;;;;22.48;19.33;;;7.90;99.90;;;;;;4984656;28;20046;-74
2023/05/16 06:59:12;;;;;;;22.88;19.23;;;7.80;99.90;;;;;;4992612;28;20069;-72
2023/05/16 07:01:38;;;;;;;21.15;19.00;;;8.00;99.90;;;;;;4986036;28;20042;-72
2023/05/16 07:04:05;;;;;;;28.45;19.20;;;8.40;99.90;;;;;;4992313;28;20038;-72
2023/05/16 07:06:32;;;;;;;26.15;20.60;;;8.70;99.90;;;;;;4988589;28;20518;-72
2023/05/16 07:08:59;;;;;;;24.83;22.38;;;8.90;99.90;;;;;;4990448;28;20487;-72
2023/05/16 07:11:26;;;;;;;28.65;22.40;;;8.80;99.90;;;;;;4990289;28;20096;-72
2023/05/16 07:13:59;;;;;;;25.58;22.25;;;8.60;99.90;;;;;;4980791;28;20037;-73
2023/05/16 07:16:27;;;;;;;30.13;23.33;;;8.60;99.90;;;;;;5046352;28;20048;-73
2023/05/16 07:18:54;;;;;;;27.90;23.23;;;8.80;99.90;;;;;;5027225;28;20064;-75
2023/05/16 07:21:21;;;;;;;25.83;23.35;;;9.00;99.90;;;;;;5022513;28;20049;-75
2023/05/16 07:23:47;;;;;;;31.27;23.92;;;8.80;99.90;;;;;;5033850;28;20120;-75
2023/05/16 07:26:14;;;;;;;26.23;23.58;;;8.60;99.90;;;;;;5041798;28;20477;-75
2023/05/16 07:28:41;;;;;;;27.40;23.63;;;8.90;99.90;;;;;;5012773;28;20203;-75
2023/05/16 07:31:08;;;;;;;27.58;24.65;;;9.10;99.90;;;;;;5009603;28;20045;-75
2023/05/16 07:33:35;;;;;;;27.00;23.98;;;9.50;99.90;;;;;;5005793;28;20084;-75
2023/05/16 07:36:02;;;;;;;27.08;24.80;;;10.00;99.90;;;;;;5006843;28;20048;-75
2023/05/16 07:38:42;;;;;;;26.90;24.05;;;10.10;99.90;;;;;;5025358;28;20046;-75
2023/05/16 07:41:08;;;;;;;28.35;25.50;;;10.50;99.90;;;;;;5015164;28;20064;-75
2023/05/16 07:43:35;;;;;;;27.98;25.38;;;10.70;99.90;;;;;;5015750;28;20037;-74
2023/05/16 07:46:02;;;;;;;34.08;27.23;;;10.50;99.90;;;;;;4995675;28;20041;-73
2023/05/16 07:48:29;;;;;;;28.92;26.60;;;10.10;99.90;;;;;;5018030;28;20475;-73
2023/05/16 07:50:56;;;;;;;31.02;28.00;;;9.70;99.90;;;;;;4999511;28;20092;-73
2023/05/16 07:53:23;;;;;;;27.92;25.10;;;9.60;99.90;;;;;;4998378;28;20357;-73
2023/05/16 07:55:50;;;;;;;27.67;25.10;;;9.70;99.90;;;;;;5005779;28;20565;-73
2023/05/16 07:58:17;;;;;;;28.52;25.98;;;9.90;99.90;;;;;;5000585;28;20037;-73
2023/05/16 08:00:44;;;;;;;27.20;24.25;;;9.80;99.90;;;;;;5019369;28;20091;-74
2023/05/16 08:03:12;;;;;;;29.75;27.15;;;9.80;99.90;;;;;;4986571;28;20555;-73
2023/05/16 08:05:39;;;;;;;27.90;25.50;;;9.80;99.90;;;;;;5019880;28;20307;-73
2023/05/16 08:08:05;;;;;;;26.08;23.60;;;10.20;99.90;;;;;;4996290;28;20609;-73
2023/05/16 08:10:32;;;;;;;28.55;25.85;;;10.80;99.90;;;;;;4987064;28;20107;-74
2023/05/16 08:12:59;;;;;;;28.60;26.00;;;11.10;99.90;;;;;;5001386;28;20045;-76
2023/05/16 08:15:27;;;;;;;29.33;26.58;;;11.10;99.90;;;;;;5007579;28;20450;-74
2023/05/16 08:17:57;;;;;;;29.48;26.25;;;10.60;99.90;;;;;;5001382;28;20045;-76
2023/05/16 08:20:25;;;;;;;33.35;30.08;;;10.20;99.90;;;;;;5001514;28;20110;-76
2023/05/16 08:22:52;;;;;;;30.15;27.45;;;10.40;99.90;;;;;;5020016;28;20468;-74
2023/05/16 08:25:19;;;;;;;32.38;29.65;;;10.50;99.90;;;;;;4998212;28;20165;-74
2023/05/16 08:27:48;;;;;;;30.15;27.70;;;11.00;99.90;;;;;;5017613;28;20034;-74
2023/05/16 08:30:14;;;;;;;29.98;26.92;;;11.70;99.90;;;;;;5018989;28;20041;-74
2023/05/16 08:32:41;;;;;;;28.30;25.63;;;11.70;99.90;;;;;;5000660;28;20091;-74
2023/05/16 08:35:09;;;;;;;30.08;27.00;;;11.60;99.90;;;;;;4984513;28;20056;-74
2023/05/16 08:37:36;;;;;;;31.30;28.77;;;11.60;99.90;;;;;;4979686;28;20095;-73
2023/05/16 08:40:07;;;;;;;27.70;25.52;;;11.60;99.90;;;;;;5023387;28;20333;-74
2023/05/16 08:42:34;;;;;;;27.85;25.63;;;11.50;99.90;;;;;;5018041;28;20468;-74
2023/05/16 08:45:01;;;;;;;30.55;28.17;;;11.20;99.90;;;;;;5017005;28;20302;-74
2023/05/16 08:47:30;;;;;;;32.22;29.02;;;10.70;99.90;;;;;;5000519;28;20616;-74
2023/05/16 08:49:57;;;;;;;30.83;28.48;;;10.60;99.90;;;;;;5018759;28;20296;-74
2023/05/16 08:52:29;;;;;;;31.88;28.95;;;10.90;99.90;;;;;;4986903;28;20309;-74
2023/05/16 08:55:04;;;;;;;33.88;30.73;;;11.30;99.90;;;;;;4981852;28;20062;-73
2023/05/16 08:57:39;;;;;;;27.17;24.85;;;11.60;99.90;;;;;;5016703;28;20164;-74
2023/05/16 09:00:11;;;;;;;25.65;23.63;;;11.80;99.90;;;;;;5003988;28;20464;-74
2023/05/16 09:02:43;;;;;;;26.65;24.20;;;12.00;99.90;;;;;;5021415;28;20041;-74
2023/05/16 09:05:12;;;;;;;31.25;28.45;;;12.20;99.90;;;;;;4987652;28;20103;-74
2023/05/16 09:07:40;;;;;;;26.75;24.38;;;12.10;99.90;;;;;;4997592;28;20038;-73
2023/05/16 09:10:07;;;;;;;27.48;25.05;;;12.10;99.90;;;;;;5018391;28;20064;-73
2023/05/16 09:12:34;;;;;;;33.35;30.65;;;11.90;99.90;;;;;;5016166;28;20088;-73
2023/05/16 09:15:03;;;;;;;32.35;29.55;;;11.50;99.90;;;;;;5001818;28;20498;-73
2023/05/16 09:17:44;;;;;;;33.80;31.10;;;11.70;99.90;;;;;;4983188;28;20128;-73
2023/05/16 09:20:11;;;;;;;28.98;26.38;;;12.20;99.90;;;;;;5000428;28;20774;-74
2023/05/16 09:22:38;;;;;;;30.23;27.98;;;12.50;99.90;;;;;;5001555;28;20159;-73
2023/05/16 09:25:06;;;;;;;32.90;30.10;;;12.40;99.90;;;;;;5020718;28;20076;-73
2023/05/16 09:27:47;;;;;;;33.80;30.90;;;12.60;99.90;;;;;;4995141;28;20072;-74
2023/05/16 09:30:15;;;;;;;31.55;29.25;;;12.70;99.90;;;;;;5000624;28;20127;-73
2023/05/16 09:32:44;;;;;;;33.05;30.13;;;13.10;99.90;;;;;;5022206;28;20317;-73
2023/05/16 09:35:16;;;;;;;29.27;26.98;;;12.60;99.90;;;;;;5001212;28;20073;-74
2023/05/16 09:37:56;;;;;;;29.40;27.15;;;12.80;99.90;;;;;;5014980;28;20051;-73
2023/05/16 09:40:23;;;;;;;28.05;25.73;;;12.70;99.90;;;;;;5005814;28;20068;-74
2023/05/16 09:43:04;;;;;;;28.45;25.95;;;12.20;99.90;;;;;;5020729;28;22362;-71
2023/05/16 09:45:33;;;;;;;34.75;31.02;;;11.90;99.90;;;;;;5022584;28;20053;-74
2023/05/16 09:48:05;;;;;;;34.80;31.20;;;11.70;99.90;;;;;;4999614;28;20049;-74
2023/05/16 09:50:33;;;;;;;29.10;26.60;;;12.40;99.90;;;;;;4999269;28;20132;-74
2023/05/16 09:53:01;;;;;;;31.40;29.00;;;12.90;99.90;;;;;;5002493;28;20131;-74
2023/05/16 09:55:28;;;;;;;27.90;25.70;;;13.20;99.90;;;;;;5016527;28;20179;-74
2023/05/16 09:57:55;;;;;;;31.23;28.92;;;13.20;99.90;;;;;;5018168;28;20596;-73
2023/05/16 10:00:27;;;;;;;30.90;28.80;;;13.30;99.90;;;;;;4995980;28;20041;-74
2023/05/16 10:02:56;;;;;;;33.65;30.90;;;13.70;99.90;;;;;;5019784;28;20059;-74
2023/05/16 10:05:25;;;;;;;28.17;25.75;;;14.20;99.90;;;;;;5017014;28;20053;-73
2023/05/16 10:07:56;;;;;;;28.83;26.38;;;14.60;99.90;;;;;;4994501;28;20045;-74
2023/05/16 10:10:27;;;;;;;28.85;26.52;;;14.30;99.90;;;;;;5021435;28;20072;-77
2023/05/16 10:12:57;;;;;;;29.45;27.10;;;13.80;99.90;;;;;;5003805;28;20490;-77
2023/05/16 10:15:24;;;;;;;35.05;32.05;;;13.40;99.90;;;;;;5004830;28;20309;-76
2023/05/16 10:17:55;;;;;;;32.75;30.00;;;13.10;99.90;;;;;;5006303;28;20608;-77
2023/05/16 10:20:22;;;;;;;29.13;26.67;;;13.00;99.90;;;;;;5003706;28;20036;-76
2023/05/16 10:22:52;;;;;;;27.92;25.65;;;12.90;99.90;;;;;;5019767;28;20103;-78
2023/05/16 10:25:40;;;;;;;34.35;31.30;;;13.00;99.90;;;;;;4985419;28;20092;-78
2023/05/16 10:28:08;;;;;;;33.80;30.85;;;13.00;99.90;;;;;;5003223;28;20037;-77
2023/05/16 10:30:36;;;;;;;33.97;31.27;;;13.20;99.90;;;;;;5017230;28;20128;-80
2023/05/16 10:33:03;;;;;;;37.38;34.72;;;13.30;99.90;;;;;;5004682;28;20063;-77
2023/05/16 10:35:31;;;;;;;30.13;27.48;;;13.50;99.90;;;;;;5003222;28;20103;-77
2023/05/16 10:38:00;;;;;;;28.80;26.52;;;13.80;99.90;;;;;;4987846;28;20052;-76
2023/05/16 10:40:28;;;;;;;30.88;28.70;;;13.40;99.90;;;;;;4987258;28;20029;-76
2023/05/16 10:42:56;;;;;;;33.63;30.77;;;13.20;99.90;;;;;;5008742;28;20075;-78
2023/05/16 10:45:23;;;;;;;32.55;29.77;;;12.90;99.90;;;;;;5006926;28;20046;-79
2023/05/16 10:47:54;;;;;;;28.48;26.45;;;12.70;99.90;;;;;;4989251;28;20042;-79
2023/05/16 10:50:34;;;;;;;29.15;26.90;;;13.00;99.90;;;;;;5018042;28;20045;-80
2023/05/16 10:53:34;;;;;;;29.17;26.88;;;13.00;99.90;;;;;;5021144;28;20220;-77
2023/05/16 10:56:02;;;;;;;27.40;25.38;;;12.80;99.90;;;;;;5000003;28;20056;-78
2023/05/16 10:58:37;;;;;;;28.27;25.98;;;12.60;99.90;;;;;;5012221;28;20056;-79
2023/05/16 11:01:15;;;;;;;29.70;27.25;;;12.50;99.90;;;;;;4999343;28;20594;-79
2023/05/16 11:04:00;;;;;;;35.85;33.05;;;12.50;99.90;;;;;;5026530;28;20128;-79
2023/05/16 11:06:28;;;;;;;27.42;25.25;;;12.60;99.90;;;;;;5027403;28;20124;-78
2023/05/16 11:09:10;;;;;;;27.10;24.67;;;13.20;99.90;;;;;;5031835;28;20044;-77
2023/05/16 11:11:51;;;;;;;27.85;25.25;;;13.40;99.90;;;;;;5005415;28;20050;-77
2023/05/16 11:14:32;;;;;;;28.52;25.60;;;13.50;99.90;;;;;;5007354;28;20081;-77
2023/05/16 11:17:22;;;;;;;33.83;30.60;;;13.20;99.90;;;;;;4997766;28;20052;-78
2023/05/16 11:19:57;;;;;;;32.97;30.27;;;13.00;99.90;;;;;;4996708;28;20057;-78
2023/05/16 11:22:28;;;;;;;33.03;30.35;;;13.40;99.90;;;;;;5018448;28;20041;-77
2023/05/16 11:25:01;;;;;;;32.05;29.48;;;13.60;99.90;;;;;;5024026;28;20278;-77
2023/05/16 11:27:34;;;;;;;33.47;31.15;;;13.90;99.90;;;;;;5002947;28;20121;-77
2023/05/16 11:30:04;;;;;;;28.00;26.00;;;14.10;99.90;;;;;;5002971;28;20049;-78
2023/05/16 11:32:35;;;;;;;27.35;25.42;;;14.20;99.90;;;;;;5006112;28;20049;-77
2023/05/16 11:35:04;;;;;;;28.00;25.92;;;14.10;99.90;;;;;;4987739;28;20045;-77
2023/05/16 11:37:31;;;;;;;35.75;33.08;;;13.90;99.90;;;;;;5002582;28;20201;-77
2023/05/16 11:40:07;;;;;;;35.10;32.53;;;13.40;99.90;;;;;;4987834;28;20076;-77
2023/05/16 11:42:35;;;;;;;33.35;31.02;;;13.40;99.90;;;;;;5005406;28;20046;-78
2023/05/16 11:45:24;;;;;;;34.67;31.75;;;13.40;99.90;;;;;;5001256;28;20053;-78
2023/05/16 11:47:51;;;;;;;28.05;26.00;;;13.40;99.90;;;;;;4993817;28;20034;-77
2023/05/16 11:50:20;;;;;;;31.55;29.15;;;13.50;99.90;;;;;;5025780;28;20039;-77
2023/05/16 11:52:52;;;;;;;32.65;30.35;;;13.40;99.90;;;;;;5021484;28;20077;-77
2023/05/16 11:55:22;;;;;;;27.38;25.02;;;13.60;99.90;;;;;;5000903;28;20307;-76
2023/05/16 11:58:06;;;;;;;28.50;25.83;;;13.80;99.90;;;;;;5000986;28;20037;-75
2023/05/16 12:00:33;;;;;;;32.90;30.60;;;13.60;99.90;;;;;;5001977;28;20414;-77
2023/05/16 12:03:03;;;;;;;28.33;26.20;;;13.10;99.90;;;;;;5020450;28;20542;-75
2023/05/16 12:05:31;;;;;;;30.58;28.48;;;13.20;99.90;;;;;;4983046;28;20531;-76
2023/05/16 12:08:01;;;;;;;28.63;25.73;;;13.40;99.90;;;;;;5011365;28;20484;-78
2023/05/16 12:10:30;;;;;;;28.25;26.02;;;13.40;99.90;;;;;;4987481;28;20047;-78
2023/05/16 12:12:57;;;;;;;34.63;31.83;;;13.60;99.90;;;;;;5004186;28;20045;-77
2023/05/16 12:15:24;;;;;;;34.33;31.98;;;13.20;99.90;;;;;;5015005;28;20132;-76
2023/05/16 12:17:51;;;;;;;34.60;31.95;;;13.40;99.90;;;;;;4996879;28;20045;-78
2023/05/16 12:20:18;;;;;;;34.38;32.17;;;14.10;99.90;;;;;;4999709;28;20156;-76
2023/05/16 12:22:46;;;;;;;35.13;32.15;;;14.20;99.90;;;;;;4996590;28;20099;-76
2023/05/16 12:25:23;;;;;;;32.10;29.60;;;14.70;99.90;;;;;;5001268;28;20084;-76
2023/05/16 12:27:51;;;;;;;30.60;28.15;;;15.10;99.90;;;;;;5015928;28;20125;-77
2023/05/16 12:30:18;;;;;;;29.63;27.40;;;15.20;99.90;;;;;;5017272;28;20037;-76
2023/05/16 12:32:44;;;;;;;30.80;28.17;;;15.40;99.90;;;;;;5017120;28;20160;-77
2023/05/16 12:35:12;;;;;;;32.20;29.80;;;14.80;99.90;;;;;;4984083;28;20896;-77
2023/05/16 12:37:38;;;;;;;32.40;30.10;;;14.10;99.90;;;;;;5015720;28;20050;-78
2023/05/16 12:40:11;;;;;;;30.67;28.33;;;13.70;99.90;;;;;;5017996;28;20099;-76
2023/05/16 12:42:38;;;;;;;36.13;33.30;;;13.90;99.90;;;;;;4997105;28;20099;-78